createdAt,value
2019-01-24T00:00:58.356Z,1.30
2019-01-24T00:03:28.609Z,1.30
2019-01-24T00:05:59.905Z,1.50
2019-01-24T00:08:30.172Z,1.10
2019-01-24T00:10:57.510Z,0.80
2019-01-24T00:13:26.542Z,1.10
2019-01-24T00:15:53.249Z,1.00
2019-01-24T00:18:21.310Z,0.80
2019-01-24T00:20:49.211Z,0.90
2019-01-24T00:23:19.581Z,1.00
2019-01-24T00:25:51.020Z,1.00
2019-01-24T00:28:21.942Z,1.10
2019-01-24T00:30:49.357Z,1.50
2019-01-24T00:33:17.015Z,1.40
2019-01-24T00:35:51.389Z,1.20
2019-01-24T00:38:19.271Z,1.00
2019-01-24T00:40:46.974Z,1.10
2019-01-24T00:43:18.595Z,1.20
2019-01-24T00:45:46.904Z,1.00
2019-01-24T00:48:14.851Z,0.90
2019-01-24T00:50:42.766Z,1.00
2019-01-24T00:53:10.641Z,1.10
2019-01-24T00:55:38.310Z,1.40
2019-01-24T00:58:05.269Z,1.50
2019-01-24T01:00:35.179Z,1.60
2019-01-24T01:03:02.955Z,1.70
2019-01-24T01:05:31.039Z,1.70
2019-01-24T01:10:50.544Z,1.60
2019-01-24T01:13:17.779Z,1.60
2019-01-24T01:15:45.654Z,1.50
2019-01-24T01:18:17.240Z,1.70
2019-01-24T01:20:46.185Z,1.60
2019-01-24T01:23:15.044Z,1.80
2019-01-24T01:25:47.503Z,1.90
2019-01-24T01:28:18.187Z,1.80
2019-01-24T01:30:45.988Z,1.70
2019-01-24T01:33:14.679Z,1.70
2019-01-24T01:35:43.156Z,1.80
2019-01-24T01:38:13.393Z,1.60
2019-01-24T01:40:44.900Z,1.20
2019-01-24T01:43:15.753Z,0.80
2019-01-24T01:45:45.400Z,0.70
2019-01-24T01:48:16.512Z,0.70
2019-01-24T01:50:44.922Z,0.90
2019-01-24T01:53:12.113Z,1.20
2019-01-24T01:55:53.143Z,1.30
2019-01-24T01:58:09.586Z,1.40
2019-01-24T02:00:37.618Z,1.00
2019-01-24T02:03:07.078Z,1.10
2019-01-24T02:05:39.859Z,1.00
2019-01-24T02:08:07.534Z,1.00
2019-01-24T02:10:36.428Z,0.90
2019-01-24T02:13:06.953Z,0.80
2019-01-24T02:18:18.345Z,0.40
2019-01-24T02:20:45.472Z,0.50
2019-01-24T02:23:30.414Z,0.50
2019-01-24T02:26:01.209Z,0.80
2019-01-24T02:28:32.223Z,1.10
2019-01-24T02:30:59.849Z,1.20
2019-01-24T02:33:27.935Z,0.90
2019-01-24T02:38:45.465Z,1.20
2019-01-24T02:41:12.098Z,1.40
2019-01-24T02:43:39.037Z,1.50
2019-01-24T02:46:05.962Z,1.60
2019-01-24T02:48:32.762Z,1.40
2019-01-24T02:50:59.428Z,1.50
2019-01-24T02:53:26.278Z,1.60
2019-01-24T02:55:53.237Z,1.70
2019-01-24T02:58:20.217Z,1.50
2019-01-24T03:00:47.219Z,1.40
2019-01-24T03:03:15.757Z,1.60
2019-01-24T03:05:43.102Z,1.40
2019-01-24T03:08:09.800Z,0.90
2019-01-24T03:10:36.506Z,0.70
2019-01-24T03:13:03.439Z,1.10
2019-01-24T03:15:31.022Z,1.40
2019-01-24T03:17:57.799Z,1.30
2019-01-24T03:20:24.734Z,0.90
2019-01-24T03:22:51.533Z,0.70
2019-01-24T03:25:18.570Z,1.10
2019-01-24T03:27:46.003Z,1.40
2019-01-24T03:30:12.633Z,1.50
2019-01-24T03:32:39.317Z,1.20
2019-01-24T03:35:06.135Z,1.20
2019-01-24T03:37:33.119Z,1.20
2019-01-24T03:39:59.899Z,1.20
2019-01-24T03:42:26.523Z,0.90
2019-01-24T03:44:53.275Z,1.00
2019-01-24T03:47:20.263Z,0.80
2019-01-24T03:49:47.253Z,0.60
2019-01-24T03:52:14.250Z,0.90
2019-01-24T03:54:40.974Z,0.90
2019-01-24T03:57:07.691Z,1.20
2019-01-24T03:59:34.676Z,1.30
2019-01-24T04:02:01.691Z,1.30
2019-01-24T04:04:28.676Z,0.90
2019-01-24T04:06:55.378Z,0.80
2019-01-24T04:09:21.970Z,1.00
2019-01-24T04:11:48.721Z,0.90
2019-01-24T04:14:17.147Z,1.00
2019-01-24T04:16:43.850Z,0.90
2019-01-24T04:19:11.092Z,0.90
2019-01-24T04:21:38.114Z,1.20
2019-01-24T04:24:04.923Z,1.10
2019-01-24T04:26:32.140Z,1.30
2019-01-24T04:28:58.946Z,1.40
2019-01-24T04:31:25.590Z,1.30
2019-01-24T04:33:52.516Z,1.40
2019-01-24T04:36:21.436Z,1.30
2019-01-24T04:38:52.902Z,1.50
2019-01-24T04:41:19.505Z,1.50
2019-01-24T04:43:48.836Z,1.60
2019-01-24T04:46:20.860Z,1.70
2019-01-24T04:48:49.953Z,1.70
2019-01-24T04:51:17.671Z,1.50
2019-01-24T04:53:47.786Z,1.50
2019-01-24T04:56:17.394Z,1.30
2019-01-24T04:58:44.484Z,1.40
2019-01-24T05:01:11.219Z,1.40
2019-01-24T05:03:37.792Z,1.10
2019-01-24T05:06:04.464Z,0.90
2019-01-24T05:08:31.576Z,1.30
2019-01-24T05:10:58.614Z,1.40
2019-01-24T05:13:25.628Z,1.60
2019-01-24T05:15:52.654Z,1.80
2019-01-24T05:18:19.626Z,1.80
2019-01-24T05:20:48.022Z,1.30
2019-01-24T05:23:14.769Z,0.80
2019-01-24T05:25:41.705Z,0.90
2019-01-24T05:28:08.744Z,1.20
2019-01-24T05:30:35.946Z,1.30
2019-01-24T05:33:02.965Z,1.40
2019-01-24T05:35:34.702Z,1.50
2019-01-24T05:37:58.370Z,1.70
2019-01-24T05:40:25.191Z,1.60
2019-01-24T05:42:52.043Z,1.60
2019-01-24T05:45:18.979Z,0.90
2019-01-24T05:47:45.989Z,1.10
2019-01-24T05:50:12.756Z,1.40
2019-01-24T05:52:39.407Z,1.40
2019-01-24T05:55:06.128Z,1.50
2019-01-24T05:57:33.123Z,1.50
2019-01-24T06:00:00.090Z,1.10
2019-01-24T06:02:26.840Z,0.70
2019-01-24T06:04:53.465Z,0.40
2019-01-24T06:07:20.235Z,0.50
2019-01-24T06:09:48.088Z,0.90
2019-01-24T06:12:14.745Z,1.30
2019-01-24T06:14:41.530Z,1.50
2019-01-24T06:17:08.474Z,1.60
2019-01-24T06:19:35.490Z,1.30
2019-01-24T06:22:02.113Z,1.10
2019-01-24T06:24:28.910Z,1.00
2019-01-24T06:26:55.878Z,1.10
2019-01-24T06:29:22.730Z,1.40
2019-01-24T06:31:49.698Z,1.10
2019-01-24T06:34:16.834Z,0.80
2019-01-24T06:39:16.151Z,1.20
2019-01-24T06:41:43.526Z,1.20
2019-01-24T06:44:10.406Z,0.70
2019-01-24T06:46:37.189Z,0.70
2019-01-24T06:49:04.028Z,0.90
2019-01-24T06:51:30.866Z,1.30
2019-01-24T06:53:57.547Z,1.40
2019-01-24T06:56:24.511Z,1.30
2019-01-24T06:58:51.139Z,1.50
2019-01-24T07:01:19.316Z,1.60
2019-01-24T07:03:46.023Z,1.10
2019-01-24T07:06:13.093Z,0.60
2019-01-24T07:08:41.785Z,0.40
2019-01-24T07:11:08.876Z,1.00
2019-01-24T07:13:35.919Z,1.30
2019-01-24T07:16:03.055Z,1.40
2019-01-24T07:18:33.438Z,1.40
2019-01-24T07:21:00.571Z,1.50
2019-01-24T07:23:27.273Z,1.60
2019-01-24T07:25:54.219Z,1.50
2019-01-24T07:28:21.142Z,1.40
2019-01-24T07:30:49.058Z,1.50
2019-01-24T07:33:15.688Z,1.50
2019-01-24T07:35:43.084Z,1.70
2019-01-24T07:38:09.892Z,1.80
2019-01-24T07:40:36.537Z,1.40
2019-01-24T07:43:03.565Z,1.40
2019-01-24T07:45:30.625Z,1.50
2019-01-24T07:47:57.610Z,1.50
2019-01-24T07:50:24.569Z,1.70
2019-01-24T07:52:51.484Z,1.80
2019-01-24T07:55:20.235Z,1.60
2019-01-24T07:57:47.074Z,1.70
2019-01-24T08:00:13.743Z,1.30
2019-01-24T08:02:40.696Z,1.50
2019-01-24T08:05:07.800Z,1.90
2019-01-24T08:07:34.759Z,2.10
2019-01-24T08:10:01.502Z,1.70
2019-01-24T08:12:28.141Z,1.90
2019-01-24T08:14:54.963Z,2.20
2019-01-24T08:17:21.687Z,2.30
2019-01-24T08:19:48.718Z,2.60
2019-01-24T08:22:15.333Z,2.50
2019-01-24T08:24:42.109Z,2.20
2019-01-24T08:27:08.752Z,2.60
2019-01-24T08:29:37.187Z,2.80
2019-01-24T08:32:04.470Z,2.10
2019-01-24T08:34:31.445Z,2.30
2019-01-24T08:37:01.562Z,2.50
2019-01-24T08:39:31.272Z,2.40
2019-01-24T08:42:02.803Z,2.30
2019-01-24T08:44:36.449Z,2.40
2019-01-24T08:47:07.790Z,2.30
2019-01-24T08:49:36.650Z,2.30
2019-01-24T08:52:10.930Z,2.30
2019-01-24T08:54:40.475Z,2.30
2019-01-24T08:57:09.414Z,2.00
2019-01-24T08:59:42.114Z,2.10
2019-01-24T09:02:08.771Z,1.90
2019-01-24T09:04:36.699Z,2.40
2019-01-24T09:07:04.737Z,2.00
2019-01-24T09:09:31.665Z,1.70
2019-01-24T09:11:58.361Z,1.80
2019-01-24T09:14:26.078Z,2.40
2019-01-24T09:16:52.742Z,2.00
2019-01-24T09:19:21.198Z,2.40
2019-01-24T09:21:51.057Z,2.10
2019-01-24T09:24:18.178Z,2.10
2019-01-24T09:26:44.944Z,2.30
2019-01-24T09:29:11.954Z,2.40
2019-01-24T09:31:40.919Z,2.90
2019-01-24T09:34:09.220Z,3.20
2019-01-24T09:36:37.144Z,3.50
2019-01-24T09:39:04.223Z,3.50
2019-01-24T09:41:31.421Z,3.10
2019-01-24T09:43:58.096Z,3.00
2019-01-24T09:46:25.077Z,3.00
2019-01-24T09:48:51.741Z,3.00
2019-01-24T09:51:18.694Z,3.50
2019-01-24T09:53:45.485Z,3.50
2019-01-24T09:56:12.316Z,3.10
2019-01-24T09:58:38.998Z,3.30
2019-01-24T10:01:06.039Z,3.20
2019-01-24T10:03:32.697Z,3.50
2019-01-24T10:05:59.542Z,3.50
2019-01-24T10:08:26.563Z,3.90
2019-01-24T10:10:53.541Z,4.10
2019-01-24T10:13:21.906Z,4.20
2019-01-24T10:15:48.703Z,4.00
2019-01-24T10:18:21.468Z,3.80
2019-01-24T10:20:44.122Z,4.30
2019-01-24T10:23:10.765Z,3.80
2019-01-24T10:25:38.228Z,3.90
2019-01-24T10:28:05.062Z,3.90
2019-01-24T10:30:31.841Z,4.00
2019-01-24T10:32:59.591Z,4.00
2019-01-24T10:35:26.255Z,4.30
2019-01-24T10:37:53.460Z,4.20
2019-01-24T10:40:22.648Z,4.50
2019-01-24T10:42:50.939Z,4.40
2019-01-24T10:45:17.662Z,4.80
2019-01-24T10:47:47.229Z,4.20
2019-01-24T10:50:17.866Z,3.90
2019-01-24T10:52:46.606Z,4.10
2019-01-24T10:55:17.469Z,4.70
2019-01-24T10:57:44.720Z,4.40
2019-01-24T11:00:11.662Z,4.10
2019-01-24T11:02:38.515Z,4.50
2019-01-24T11:05:05.389Z,4.60
2019-01-24T11:07:32.475Z,4.70
2019-01-24T11:09:59.483Z,5.20
2019-01-24T11:12:26.930Z,4.90
2019-01-24T11:14:55.072Z,5.70
2019-01-24T11:17:22.895Z,6.00
2019-01-24T11:19:49.722Z,6.40
2019-01-24T11:22:16.742Z,5.00
2019-01-24T11:24:43.717Z,4.10
2019-01-24T11:27:10.851Z,4.30
2019-01-24T11:29:39.454Z,4.60
2019-01-24T11:32:06.548Z,5.50
2019-01-24T11:34:33.458Z,5.90
2019-01-24T11:37:00.260Z,5.60
2019-01-24T11:39:27.298Z,5.90
2019-01-24T11:41:54.118Z,6.20
2019-01-24T11:44:21.115Z,6.50
2019-01-24T11:46:48.050Z,6.30
2019-01-24T11:49:15.071Z,5.80
2019-01-24T11:51:42.040Z,4.60
2019-01-24T11:54:08.694Z,4.90
2019-01-24T11:56:35.451Z,5.40
2019-01-24T11:59:02.142Z,5.60
2019-01-24T12:01:29.065Z,6.00
2019-01-24T12:03:55.891Z,6.50
2019-01-24T12:06:23.892Z,6.00
2019-01-24T12:08:50.509Z,5.80
2019-01-24T12:11:17.448Z,5.60
2019-01-24T12:13:44.780Z,6.00
2019-01-24T12:16:11.697Z,5.80
2019-01-24T12:18:39.032Z,5.40
2019-01-24T12:21:05.814Z,4.80
2019-01-24T12:23:32.595Z,4.10
2019-01-24T12:26:02.667Z,4.30
2019-01-24T12:28:29.538Z,5.10
2019-01-24T12:30:56.463Z,5.70
2019-01-24T12:33:24.042Z,5.90
2019-01-24T12:35:51.175Z,5.40
2019-01-24T12:38:21.037Z,5.70
2019-01-24T12:40:49.021Z,5.90
2019-01-24T12:43:16.633Z,5.80
2019-01-24T12:45:43.408Z,5.20
2019-01-24T12:48:14.684Z,5.20
2019-01-24T12:53:32.864Z,6.40
2019-01-24T12:56:00.435Z,6.10
2019-01-24T12:58:28.137Z,5.60
2019-01-24T13:00:59.432Z,5.30
2019-01-24T13:03:26.255Z,5.30
2019-01-24T13:05:54.384Z,4.70
2019-01-24T13:08:21.041Z,5.00
2019-01-24T13:10:48.055Z,5.20
2019-01-24T13:13:15.203Z,5.60
2019-01-24T13:15:42.325Z,5.70
2019-01-24T13:18:09.195Z,5.70
2019-01-24T13:20:36.162Z,5.80
2019-01-24T13:23:03.202Z,5.70
2019-01-24T13:25:30.384Z,5.30
2019-01-24T13:27:57.595Z,5.60
2019-01-24T13:30:29.259Z,5.30
2019-01-24T13:33:13.288Z,5.00
2019-01-24T13:35:46.207Z,5.30
2019-01-24T13:38:13.103Z,4.70
2019-01-24T13:40:41.222Z,4.90
2019-01-24T13:43:13.074Z,5.00
2019-01-24T13:45:43.959Z,5.20
2019-01-24T13:48:15.908Z,4.80
2019-01-24T13:50:47.142Z,4.50
2019-01-24T13:53:15.667Z,5.30
2019-01-24T13:55:47.816Z,5.60
2019-01-24T13:58:19.481Z,4.50
2019-01-24T14:00:49.555Z,4.80
2019-01-24T14:03:19.899Z,4.70
2019-01-24T14:05:47.875Z,5.40
2019-01-24T14:08:17.956Z,5.60
2019-01-24T14:10:49.881Z,5.60
2019-01-24T14:13:21.468Z,5.30
2019-01-24T14:15:51.587Z,5.30
2019-01-24T14:18:21.658Z,5.40
2019-01-24T14:20:49.450Z,5.50
2019-01-24T14:23:23.154Z,5.50
2019-01-24T14:25:50.693Z,5.50
2019-01-24T14:28:19.199Z,4.90
2019-01-24T14:30:46.888Z,5.30
2019-01-24T14:33:13.756Z,5.00
2019-01-24T14:35:40.859Z,4.90
2019-01-24T14:38:09.816Z,4.90
2019-01-24T14:40:38.962Z,5.00
2019-01-24T14:43:07.400Z,5.10
2019-01-24T14:45:35.884Z,4.40
2019-01-24T14:48:09.141Z,4.30
2019-01-24T14:50:36.880Z,4.20
2019-01-24T14:53:05.883Z,4.70
2019-01-24T14:55:37.898Z,4.80
2019-01-24T14:58:20.487Z,4.60
2019-01-24T15:00:50.119Z,4.50
2019-01-24T15:03:20.282Z,4.70
2019-01-24T15:05:48.361Z,4.20
2019-01-24T15:08:18.550Z,4.60
2019-01-24T15:10:46.343Z,4.50
2019-01-24T15:13:13.908Z,4.30
2019-01-24T15:15:43.690Z,4.00
2019-01-24T15:18:14.605Z,4.10
2019-01-24T15:20:44.490Z,4.30
2019-01-24T15:23:12.597Z,4.30
2019-01-24T15:25:47.831Z,4.30
2019-01-24T15:28:12.795Z,4.30
2019-01-24T15:30:42.686Z,3.60
2019-01-24T15:33:16.886Z,2.50
2019-01-24T15:35:45.057Z,2.90
2019-01-24T15:38:16.137Z,2.30
2019-01-24T15:40:44.341Z,2.10
2019-01-24T15:43:13.998Z,2.40
2019-01-24T15:45:41.181Z,2.60
2019-01-24T15:48:10.898Z,2.60
2019-01-24T15:50:38.337Z,2.80
2019-01-24T15:53:07.713Z,2.40
2019-01-24T15:55:37.808Z,2.40
2019-01-24T15:58:05.012Z,2.10
2019-01-24T16:00:32.523Z,2.10
2019-01-24T16:02:59.637Z,2.10
2019-01-24T16:05:26.309Z,1.80
2019-01-24T16:07:53.190Z,2.20
2019-01-24T16:10:20.219Z,2.40
2019-01-24T16:12:47.435Z,2.50
2019-01-24T16:15:14.354Z,2.50
2019-01-24T16:17:41.285Z,2.70
2019-01-24T16:20:08.138Z,2.40
2019-01-24T16:22:35.210Z,2.10
2019-01-24T16:25:02.022Z,1.50
2019-01-24T16:27:29.962Z,1.80
2019-01-24T16:30:03.609Z,2.10
2019-01-24T16:35:12.893Z,1.90
2019-01-24T16:37:39.747Z,2.10
2019-01-24T16:40:06.717Z,1.50
2019-01-24T16:42:33.936Z,0.90
2019-01-24T16:45:02.199Z,1.10
2019-01-24T16:47:28.990Z,1.40
2019-01-24T16:49:55.979Z,1.60
2019-01-24T16:52:22.911Z,1.40
2019-01-24T16:54:49.627Z,0.80
2019-01-24T16:57:16.328Z,1.20
2019-01-24T16:59:43.091Z,1.70
2019-01-24T17:02:09.690Z,1.70
2019-01-24T17:04:37.549Z,1.60
2019-01-24T17:07:04.149Z,1.80
2019-01-24T17:09:31.979Z,1.20
2019-01-24T17:11:58.949Z,1.30
2019-01-24T17:14:26.546Z,1.50
2019-01-24T17:16:54.399Z,1.40
2019-01-24T17:19:22.773Z,1.30
2019-01-24T17:21:49.820Z,1.40
2019-01-24T17:24:16.599Z,0.90
2019-01-24T17:26:43.289Z,0.70
2019-01-24T17:29:09.886Z,0.80
2019-01-24T17:31:36.809Z,0.90
2019-01-24T17:34:04.343Z,1.10
2019-01-24T17:36:31.019Z,1.30
2019-01-24T17:38:59.000Z,1.50
2019-01-24T17:41:26.482Z,1.60
2019-01-24T17:43:54.150Z,1.90
2019-01-24T17:46:21.019Z,1.40
2019-01-24T17:48:55.427Z,1.20
2019-01-24T17:51:19.445Z,1.10
2019-01-24T17:53:47.176Z,0.80
2019-01-24T17:56:16.485Z,0.90
2019-01-24T17:58:43.212Z,1.00
2019-01-24T18:01:23.950Z,1.00
2019-01-24T18:03:38.267Z,0.50
2019-01-24T18:06:05.184Z,0.60
2019-01-24T18:08:33.655Z,0.90
2019-01-24T18:11:00.796Z,0.80
2019-01-24T18:13:28.505Z,1.30
2019-01-24T18:15:55.468Z,1.30
2019-01-24T18:18:22.456Z,0.80
2019-01-24T18:20:50.755Z,0.70
2019-01-24T18:23:17.832Z,0.80
2019-01-24T18:25:44.568Z,0.70
2019-01-24T18:28:15.942Z,0.70
2019-01-24T18:30:40.086Z,0.80
2019-01-24T18:33:08.959Z,0.50
2019-01-24T18:35:39.813Z,0.40
2019-01-24T18:38:07.064Z,0.70
2019-01-24T18:40:37.179Z,1.00
2019-01-24T18:43:10.677Z,1.10
2019-01-24T18:45:44.495Z,1.40
2019-01-24T18:48:14.874Z,1.20
2019-01-24T18:53:29.431Z,1.00
2019-01-24T18:56:00.411Z,1.20
2019-01-24T18:58:28.623Z,1.00
2019-01-24T19:00:58.344Z,0.70
2019-01-24T19:03:25.627Z,0.90
2019-01-24T19:05:52.494Z,0.80
2019-01-24T19:08:19.404Z,0.70
2019-01-24T19:10:46.040Z,0.60
2019-01-24T19:13:14.488Z,0.80
2019-01-24T19:15:42.240Z,0.60
2019-01-24T19:18:08.879Z,0.50
2019-01-24T19:23:23.897Z,0.40
2019-01-24T19:25:51.894Z,0.30
2019-01-24T19:28:22.801Z,0.20
2019-01-24T19:30:50.901Z,0.60
2019-01-24T19:33:18.610Z,0.70
2019-01-24T19:35:46.576Z,1.10
2019-01-24T19:38:13.582Z,1.00
2019-01-24T19:40:41.056Z,0.90
2019-01-24T19:43:07.775Z,0.60
2019-01-24T19:45:34.693Z,0.60
2019-01-24T19:48:02.570Z,1.00
2019-01-24T19:50:30.237Z,0.80
2019-01-24T19:52:58.821Z,0.70
2019-01-24T19:55:25.778Z,0.50
2019-01-24T19:57:56.114Z,0.60
2019-01-24T20:00:23.215Z,0.60
2019-01-24T20:02:51.025Z,0.70
2019-01-24T20:05:19.131Z,0.70
2019-01-24T20:07:46.824Z,0.60
2019-01-24T20:10:14.633Z,0.70
2019-01-24T20:12:41.301Z,0.80
2019-01-24T20:15:08.077Z,1.00
2019-01-24T20:17:35.717Z,0.90
2019-01-24T20:20:03.419Z,0.80
2019-01-24T20:22:30.409Z,1.10
2019-01-24T20:24:57.217Z,1.00
2019-01-24T20:27:24.232Z,1.10
2019-01-24T20:29:51.106Z,1.00
2019-01-24T20:32:18.805Z,0.70
2019-01-24T20:34:46.570Z,0.90
2019-01-24T20:37:13.456Z,1.00
2019-01-24T20:39:40.792Z,1.00
2019-01-24T20:42:07.739Z,1.00
2019-01-24T20:44:34.780Z,0.90
2019-01-24T20:47:01.561Z,0.70
2019-01-24T20:49:28.260Z,0.80
2019-01-24T20:51:54.892Z,0.90
2019-01-24T20:54:21.725Z,1.10
2019-01-24T20:56:48.952Z,1.00
2019-01-24T20:59:15.718Z,0.60
2019-01-24T21:01:42.344Z,1.00
2019-01-24T21:04:09.202Z,1.20
2019-01-24T21:06:36.276Z,1.00
2019-01-24T21:09:03.228Z,1.00
2019-01-24T21:11:29.908Z,1.10
2019-01-24T21:13:56.602Z,1.30
2019-01-24T21:16:23.360Z,1.50
2019-01-24T21:18:50.255Z,1.70
2019-01-24T21:21:16.942Z,1.80
2019-01-24T21:23:43.555Z,1.90
2019-01-24T21:26:11.984Z,1.80
2019-01-24T21:28:38.669Z,1.90
2019-01-24T21:31:05.328Z,1.60
2019-01-24T21:33:32.001Z,1.30
2019-01-24T21:35:58.684Z,1.40
2019-01-24T21:38:25.610Z,1.40
2019-01-24T21:40:52.673Z,1.30
2019-01-24T21:43:19.625Z,1.30
2019-01-24T21:45:46.231Z,1.20
2019-01-24T21:48:13.266Z,1.30
2019-01-24T21:50:40.114Z,1.30
2019-01-24T21:53:06.718Z,1.40
2019-01-24T21:55:33.345Z,1.50
2019-01-24T21:58:00.058Z,1.40
2019-01-24T22:00:26.784Z,1.60
2019-01-24T22:02:53.450Z,1.60
2019-01-24T22:05:20.324Z,1.40
2019-01-24T22:07:47.260Z,1.40
2019-01-24T22:10:13.996Z,1.40
2019-01-24T22:12:42.528Z,1.20
2019-01-24T22:15:09.230Z,1.20
2019-01-24T22:17:36.175Z,1.60
2019-01-24T22:20:03.235Z,1.70
2019-01-24T22:22:30.236Z,1.40
2019-01-24T22:24:57.254Z,1.80
2019-01-24T22:27:24.538Z,1.90
2019-01-24T22:29:51.322Z,1.50
2019-01-24T22:32:18.265Z,1.50
2019-01-24T22:34:45.267Z,1.30
2019-01-24T22:37:12.681Z,1.30
2019-01-24T22:39:39.464Z,1.50
2019-01-24T22:42:06.455Z,1.60
2019-01-24T22:44:33.550Z,1.70
2019-01-24T22:47:00.467Z,1.80
2019-01-24T22:49:27.382Z,1.40
2019-01-24T22:51:54.040Z,1.20
2019-01-24T22:54:21.043Z,1.40
2019-01-24T22:56:48.151Z,1.50
2019-01-24T22:59:14.861Z,1.50
2019-01-24T23:01:43.029Z,1.50
2019-01-24T23:04:09.825Z,1.70
2019-01-24T23:06:36.812Z,1.70
2019-01-24T23:09:04.194Z,1.20
2019-01-24T23:11:30.875Z,1.40
2019-01-24T23:13:57.835Z,1.40
2019-01-24T23:16:24.521Z,1.30
2019-01-24T23:18:51.216Z,1.20
2019-01-24T23:21:17.921Z,1.00
2019-01-24T23:23:44.640Z,0.90
2019-01-24T23:26:11.338Z,0.50
2019-01-24T23:28:38.150Z,0.60
2019-01-24T23:31:05.099Z,0.60
2019-01-24T23:33:31.856Z,0.70
2019-01-24T23:35:58.444Z,0.70
2019-01-24T23:38:25.110Z,0.60
2019-01-24T23:40:51.848Z,0.40
2019-01-24T23:43:18.552Z,0.30
2019-01-24T23:45:46.078Z,0.20
2019-01-24T23:48:13.592Z,0.00
2019-01-24T23:50:40.330Z,0.40
2019-01-24T23:53:07.322Z,0.40
2019-01-24T23:55:34.020Z,0.50
2019-01-24T23:58:00.649Z,0.40
